x

Central Dixon Entrance Buoy (46145) Wave Buoy

12:00am - Thu 21st Sep 2017 All times are PDT. -7 hours from GMT.

  • Sig Wave height 9.2ft
  • Peak Period 9s
  • Wind
    22mph, 29mph gusts
  • Sea Temp 55°f
  • Air Temp 54°f
  • Sea Pressure 1016.5mb
  • Central Dixon Entrance Buoy
  • Central Dixon Entrance Buoy

More Historic Weather Station data

Upgrade to MSW Pro to gain access to the past 30 days of data for over 8000 Wavebouys and Weather Stations around the globe.

Join

Comparision Forecast

View Surf forecast
   
Thu 09/21 12:00am 9ft 9s 22 29 mph 1016.5mb 55f 54f
Wed 09/20 11:00pm 9ft 8s 22 29 mph 1016.3mb 55f 54f
10:00pm 9ft 9s 22 29 mph 1016.4mb 55f 54f
9:00pm  -   -  22
mph
- - -
8:00pm 8ft 10s 25 29 mph 1015.9mb 55f 54f
7:00pm 6ft 9s 20 25 mph 1015.7mb 55f 55f
6:00pm 6ft 10s 18 22 mph 1015.3mb 55f 55f
5:00pm 6ft 10s 18 22 mph 1014.8mb 55f 55f
4:00pm 7ft 10s 16 20 mph 1014.6mb 55f 55f
3:00pm 6.5ft 10s 18 22 mph 1014.4mb 55f 55f
2:00pm 6.5ft 8s 18 22 mph 1014.4mb 55f 55f
1:00pm 7ft 9s 16 18 mph 1014mb 54f 55f
12:00pm 6ft 10s 13 18 mph 1014mb 55f 55f
11:00am 6ft 9s 9 13 mph 1013.9mb 55f 55f
10:00am 5.5ft 10s 9 11 mph 1013.6mb 54f 54f
9:00am 6ft 10s 11 13 mph 1013.4mb 54f 54f
8:00am 5.5ft 10s 11 13 mph 1013.3mb 54f 54f
7:00am 4.5ft 10s 11 13 mph 1013.1mb 54f 54f
6:00am 4.5ft 10s 16 18 mph 1012.7mb 54f 53f
5:00am 4.5ft 11s 13 18 mph 1012.3mb 54f 53f
4:00am 5ft 10s 16 18 mph 1011.8mb 54f 53f
3:00am 4.5ft 10s 13 16 mph 1011.4mb 54f 53f
2:00am 4.5ft 10s 11 13 mph 1011.2mb 54f 54f
1:00am 5ft 10s 9 11 mph 1011.1mb 55f 53f
12:00am 5.5ft 11s 9 11 mph 1011mb 55f 53f
Tue 09/19 11:00pm 5.5ft 10s 7 9 mph 1010.6mb 55f 53f
10:00pm 6ft 11s 7 9 mph 1010.5mb 55f 53f
9:00pm 5ft 10s 7 9 mph 1010.4mb 55f 53f
8:00pm 5.5ft 11s 7 7 mph 1009.9mb 56f 54f
7:00pm 5ft 10s 2 4 mph 1009.3mb 56f 54f
6:00pm 5ft 11s 2 4 mph 1008.7mb 57f 54f
5:00pm 5.5ft 11s 4 7 mph 1008.2mb 58f 54f
4:00pm 5.5ft 10s 2 4 mph 1007.7mb 57f 54f
3:00pm 6ft 10s 2 4 mph 1007.3mb 57f 54f
2:00pm 6.5ft 10s 2 2 mph 1006.9mb 55f 54f
1:00pm 7ft 11s 4 7 mph 1006.7mb 55f 53f
12:00pm 8ft 12s 7 9 mph 1006.6mb 55f 53f
11:00am 8ft 11s 4 7 mph 1006.6mb 54f 53f
10:00am 8ft 11s 4 9 mph 1006.6mb 54f 53f
9:00am 9ft 11s 7 9 mph 1006.7mb 54f 53f
8:00am 9ft 12s 7 9 mph 1006.7mb 54f 53f
7:00am 8ft 12s 4 7 mph 1007mb 54f 53f
6:00am 7ft 13s 4 9 mph 1006.8mb 55f 53f
5:00am 6.5ft 12s 4 7 mph 1006.9mb 55f 53f
4:00am 7.5ft 14s 7 9 mph 1006.9mb 54f 53f
3:00am 8ft 13s 7 9 mph 1006.9mb 55f 53f
2:00am 9.5ft 14s 9 11 mph 1006.9mb 55f 53f
1:00am 10ft 14s 7 9 mph 1007.1mb 55f 53f
12:00am 11ft 12s 7 9 mph 1007.2mb 55f 53f
Mon 09/18 11:00pm 12ft 13s 9 11 mph 1007.3mb 54f 54f
10:00pm 13ft 14s 9 11 mph 1007.3mb 54f 54f
9:00pm 14ft 11s 9 13 mph 1007.3mb 55f 53f
8:00pm 11.5ft 13s 7 11 mph 1007.2mb 55f 54f
7:00pm 11ft 14s 4 9 mph 1007.1mb 56f 54f
6:00pm 9.5ft 14s 4 9 mph 1007mb 56f 54f
5:00pm 10.5ft 15s 2 7 mph 1006.8mb 56f 55f
4:00pm 10ft 15s 2 4 mph 1006.7mb 56f 55f
3:00pm 11ft 15s 4 7 mph 1006.3mb 56f 54f
2:00pm 11ft 14s 7 11 mph 1006.1mb 55f 53f
1:00pm 12ft 14s 4 9 mph 1005.9mb 55f 53f
12:00pm 12ft 16s 4 7 mph 1005.6mb 55f 52f
11:00am 13ft 15s 4 7 mph 1005.2mb 55f 52f
10:00am 14.5ft 15s 7 11 mph 1004.8mb 54f 52f
9:00am 15ft 14s 7 11 mph 1004.3mb 54f 53f
8:00am 15ft 12s 9 13 mph 1003.7mb 54f 53f
7:00am 14ft 14s 4 9 mph 1003.4mb 54f 53f
6:00am 14.5ft 14s 7 11 mph 1002.9mb 55f 53f
5:00am 13.5ft 14s 9 13 mph 1002mb 54f 53f
4:00am 12ft 15s 9 13 mph 1001.8mb 55f 53f
3:00am 11ft 15s 4 9 mph 1001.6mb 55f 53f
2:00am 10.5ft 14s 4 7 mph 1001.3mb 55f 52f
1:00am 8ft 12s 4 4 mph 1001mb 55f 52f
12:00am 8ft 12s 4 7 mph 1001mb 55f 52f
Sun 09/17 11:00pm 7.5ft 11s 7 9 mph 1001mb 55f 53f
10:00pm 8.5ft 11s 9 11 mph 1000.6mb 55f 53f
9:00pm 8ft 10s 7 9 mph 1000.5mb 55f 53f
8:00pm 6ft 9s 9 13 mph 1000.1mb 55f 54f
7:00pm 5ft 9s 11 13 mph 1000.1mb 55f 54f
6:00pm 5ft 9s 11 13 mph 1000.2mb 55f 54f
5:00pm 5.5ft 9s 9 11 mph 1000.1mb 56f 53f
4:00pm 5ft 9s 11 16 mph 999.6mb 55f 53f
3:00pm 4.5ft 9s 11 13 mph 999.1mb 55f 53f
2:00pm 4.5ft 10s 13 16 mph 998.7mb 55f 54f
1:00pm 4ft 10s 11 13 mph 998.2mb 55f 54f
12:00pm 4.5ft 9s 4 9 mph 997.8mb 55f 53f
11:00am 5ft 10s 13 18 mph 997.2mb 55f 52f
10:00am 5ft 10s 13 16 mph 996.7mb 55f 54f
9:00am 6ft 9s 16 18 mph 996.1mb 55f 53f